| time (UTC) | temp C | wind direction | speed KPH | gust KPH | rain 1hr cm | rain 24hr cm | rain mn cm | humidity % | barometer mb |
| 20260507180510 | 14 | 218 | 11.3 | 33.8 | 0.00 | 0.33 | 0.33 | 73 | 1001.8 |
| 20260507180011 | 14 | 214 | 11.3 | 37.0 | 0.00 | 0.33 | 0.33 | 72 | 1001.8 |
| 20260507175012 | 14 | 191 | 9.7 | 37.0 | 0.00 | 0.33 | 0.33 | 73 | 1002.5 |
| 20260507174511 | 14 | 190 | 11.3 | 35.4 | 0.00 | 0.33 | 0.33 | 74 | 1002.1 |
| 20260507174011 | 14 | 204 | 12.9 | 35.4 | 0.03 | 0.33 | 0.33 | 74 | 1002.4 |
| 20260507173511 | 13 | 200 | 6.4 | 20.9 | 0.03 | 0.33 | 0.33 | 75 | 1001.9 |
| 20260507173010 | 13 | 199 | 14.5 | 32.2 | 0.03 | 0.33 | 0.33 | 74 | 1001.4 |
| 20260507172511 | 13 | 207 | 9.7 | 32.2 | 0.05 | 0.33 | 0.33 | 74 | 1001.7 |
| 20260507172011 | 13 | 216 | 9.7 | 29.0 | 0.05 | 0.33 | 0.33 | 76 | 1002.6 |
| 20260507171012 | 13 | 192 | 14.5 | 25.7 | 0.05 | 0.33 | 0.33 | 80 | 1002.8 |
| 20260507170011 | 12 | 192 | 12.9 | 32.2 | 0.05 | 0.33 | 0.33 | 84 | 1003.2 |
| 20260507165511 | 12 | 204 | 22.5 | 32.2 | 0.05 | 0.33 | 0.33 | 85 | 1003.8 |
| 20260507165011 | 12 | 199 | 12.9 | 25.7 | 0.10 | 0.33 | 0.33 | 87 | 1003.5 |
| 20260507164511 | 12 | 188 | 16.1 | 24.1 | 0.13 | 0.33 | 0.33 | 87 | 1004.2 |
| 20260507164010 | 12 | 209 | 11.3 | 22.5 | 0.13 | 0.30 | 0.30 | 87 | 1005.6 |
| 20260507163511 | 13 | 308 | 6.4 | 25.7 | 0.13 | 0.30 | 0.30 | 87 | 1006.6 |
| 20260507163011 | 13 | 327 | 4.8 | 25.7 | 0.13 | 0.30 | 0.30 | 85 | 1007.9 |
| 20260507162510 | 13 | 300 | 6.4 | 17.7 | 0.10 | 0.28 | 0.28 | 83 | 1007.8 |
| 20260507162011 | 13 | 284 | 3.2 | 12.9 | 0.10 | 0.28 | 0.28 | 83 | 1007.4 |
| 20260507161511 | 13 | 197 | 6.4 | 14.5 | 0.10 | 0.28 | 0.28 | 82 | 1006.5 |
| 20260507161010 | 13 | 207 | 6.4 | 17.7 | 0.10 | 0.28 | 0.28 | 82 | 1006.0 |
| 20260507160512 | 13 | 182 | 6.4 | 24.1 | 0.10 | 0.28 | 0.28 | 83 | 1005.6 |
| 20260507160010 | 13 | 158 | 9.7 | 29.0 | 0.10 | 0.28 | 0.28 | 82 | 1004.4 |
| 20260507155010 | 14 | 166 | 11.3 | 33.8 | 0.05 | 0.23 | 0.23 | 80 | 1004.8 |
| 20260507154511 | 15 | 181 | 6.4 | 33.8 | 0.03 | 0.20 | 0.20 | 78 | 1004.9 |
| 20260507154010 | 15 | 198 | 17.7 | 33.8 | 0.00 | 0.18 | 0.18 | 73 | 1006.2 |
| 20260507153511 | 15 | 298 | 8.0 | 25.7 | 0.00 | 0.18 | 0.18 | 68 | 1007.8 |
| 20260507153010 | 16 | 306 | 9.7 | 24.1 | 0.00 | 0.18 | 0.18 | 64 | 1009.5 |
| 20260507152511 | 16 | 243 | 9.7 | 35.4 | 0.00 | 0.18 | 0.18 | 63 | 1009.6 |
| 20260507152011 | 16 | 207 | 3.2 | 35.4 | 0.00 | 0.18 | 0.18 | 61 | 1007.6 |
| 20260507151012 | 17 | 189 | 16.1 | 43.5 | 0.00 | 0.18 | 0.18 | 60 | 1005.9 |
| 20260507150010 | 16 | 194 | 9.7 | 43.5 | 0.03 | 0.18 | 0.18 | 64 | 1005.4 |
| 20260507145511 | 16 | 182 | 20.9 | 43.5 | 0.03 | 0.18 | 0.18 | 65 | 1004.8 |
| 20260507145010 | 16 | 160 | 16.1 | 43.5 | 0.03 | 0.18 | 0.18 | 67 | 1004.3 |
| 20260507144011 | 16 | 194 | 12.9 | 64.4 | 0.03 | 0.18 | 0.18 | 67 | 1004.1 |
| 20260507143510 | 16 | 188 | 32.2 | 64.4 | 0.03 | 0.18 | 0.18 | 67 | 1004.3 |
| 20260507143012 | 16 | 209 | 22.5 | 57.9 | 0.03 | 0.18 | 0.18 | 68 | 1004.3 |
| 20260507142511 | 15 | 214 | 27.4 | 57.9 | 0.03 | 0.18 | 0.18 | 71 | 1004.3 |
| 20260507142011 | 15 | 205 | 19.3 | 51.5 | 0.03 | 0.18 | 0.18 | 73 | 1004.4 |
| 20260507141511 | 15 | 208 | 24.1 | 43.5 | 0.03 | 0.18 | 0.18 | 78 | 1004.8 |
| 20260507141010 | 15 | 205 | 25.7 | 43.5 | 0.03 | 0.18 | 0.18 | 77 | 1005.0 |
| 20260507140510 | 15 | 211 | 19.3 | 48.3 | 0.03 | 0.18 | 0.18 | 74 | 1005.7 |
| 20260507140010 | 15 | 197 | 24.1 | 49.9 | 0.00 | 0.15 | 0.15 | 70 | 1005.9 |
| 20260507135512 | 16 | 188 | 24.1 | 49.9 | 0.00 | 0.15 | 0.15 | 62 | 1006.1 |
| 20260507134510 | 16 | 211 | 22.5 | 48.3 | 0.00 | 0.15 | 0.15 | 63 | 1006.2 |
| 20260507134010 | 16 | 194 | 24.1 | 48.3 | 0.00 | 0.15 | 0.15 | 63 | 1004.4 |
| 20260507133511 | 17 | 183 | 9.7 | 38.6 | 0.00 | 0.15 | 0.15 | 65 | 1003.8 |
| 20260507133010 | 17 | 188 | 8.0 | 38.6 | 0.00 | 0.15 | 0.15 | 67 | 1003.0 |
| 20260507132510 | 17 | 196 | 16.1 | 40.2 | 0.00 | 0.15 | 0.15 | 66 | 1003.1 |
| 20260507132011 | 17 | 207 | 11.3 | 43.5 | 0.00 | 0.15 | 0.15 | 67 | 1003.2 |
| 20260507131510 | 17 | 212 | 16.1 | 43.5 | 0.00 | 0.15 | 0.15 | 68 | 1002.6 |
| 20260507131011 | 17 | 202 | 19.3 | 40.2 | 0.00 | 0.15 | 0.15 | 67 | 1002.8 |
| 20260507130510 | 17 | 194 | 12.9 | 40.2 | 0.00 | 0.15 | 0.15 | 69 | 1003.0 |
| 20260507130010 | 17 | 183 | 20.9 | 40.2 | 0.00 | 0.15 | 0.15 | 69 | 1003.8 |
| 20260507125510 | 17 | 191 | 16.1 | 33.8 | 0.00 | 0.15 | 0.15 | 68 | 1003.3 |
| 20260507125011 | 17 | 193 | 22.5 | 33.8 | 0.00 | 0.15 | 0.15 | 66 | 1003.2 |
| 20260507124010 | 18 | 189 | 8.0 | 40.2 | 0.00 | 0.15 | 0.15 | 66 | 1002.7 |
| 20260507123010 | 18 | 174 | 12.9 | 32.2 | 0.00 | 0.15 | 0.15 | 71 | 1002.9 |
| 20260507122510 | 18 | 177 | 16.1 | 33.8 | 0.00 | 0.15 | 0.15 | 73 | 1002.5 |
| 20260507122011 | 18 | 173 | 11.3 | 35.4 | 0.00 | 0.15 | 0.15 | 74 | 1002.7 |
| 20260507121510 | 18 | 183 | 14.5 | 35.4 | 0.00 | 0.15 | 0.15 | 76 | 1002.1 |
| 20260507121010 | 18 | 185 | 16.1 | 35.4 | 0.00 | 0.15 | 0.15 | 77 | 1002.2 |
| 20260507120511 | 18 | 189 | 16.1 | 46.7 | 0.00 | 0.15 | 0.15 | 79 | 1002.3 |
| 20260507120010 | 18 | 189 | 14.5 | 46.7 | 0.00 | 0.15 | 0.15 | 81 | 1001.9 |
| 20260507115510 | 18 | 176 | 17.7 | 38.6 | 0.00 | 0.15 | 0.15 | 83 | 1002.0 |
| 20260507115011 | 18 | 171 | 19.3 | 40.2 | 0.00 | 0.15 | 0.15 | 83 | 1001.9 |
| 20260507114510 | 18 | 167 | 11.3 | 40.2 | 0.00 | 0.15 | 0.15 | 84 | 1001.7 |
| 20260507114010 | 18 | 165 | 16.1 | 35.4 | 0.00 | 0.15 | 0.15 | 84 | 1001.7 |
| 20260507113511 | 18 | 166 | 11.3 | 37.0 | 0.00 | 0.15 | 0.15 | 84 | 1001.6 |
| 20260507113010 | 18 | 162 | 11.3 | 37.0 | 0.00 | 0.15 | 0.15 | 84 | 1001.5 |
| 20260507112010 | 18 | 187 | 14.5 | 35.4 | 0.00 | 0.15 | 0.15 | 85 | 1001.5 |
| 20260507111511 | 18 | 193 | 8.0 | 43.5 | 0.00 | 0.15 | 0.15 | 85 | 1001.0 |
| 20260507111010 | 18 | 195 | 17.7 | 43.5 | 0.00 | 0.15 | 0.15 | 86 | 1001.0 |
| 20260507110510 | 19 | 196 | 16.1 | 43.5 | 0.00 | 0.15 | 0.15 | 85 | 1000.8 |
| 20260507110010 | 19 | 183 | 6.4 | 37.0 | 0.00 | 0.15 | 0.15 | 86 | 1001.1 |
| 20260507104511 | 19 | 187 | 16.1 | 33.8 | 0.00 | 0.15 | 0.15 | 86 | 1000.6 |
| 20260507104010 | 19 | 187 | 12.9 | 33.8 | 0.00 | 0.15 | 0.15 | 87 | 1000.7 |
| 20260507103510 | 19 | 174 | 9.7 | 32.2 | 0.00 | 0.15 | 0.15 | 87 | 1000.3 |
| 20260507103010 | 19 | 165 | 11.3 | 29.0 | 0.00 | 0.15 | 0.15 | 86 | 1000.3 |
| 20260507102511 | 19 | 182 | 14.5 | 37.0 | 0.00 | 0.15 | 0.15 | 86 | 999.8 |
| 20260507102010 | 19 | 185 | 14.5 | 37.0 | 0.00 | 0.15 | 0.15 | 86 | 999.8 |
| 20260507101511 | 19 | 181 | 12.9 | 29.0 | 0.00 | 0.15 | 0.15 | 86 | 999.6 |
| 20260507101011 | 19 | 191 | 14.5 | 37.0 | 0.00 | 0.15 | 0.15 | 86 | 999.8 |
| 20260507100510 | 19 | 178 | 14.5 | 37.0 | 0.00 | 0.15 | 0.15 | 86 | 999.5 |
| 20260507100010 | 19 | 175 | 12.9 | 35.4 | 0.00 | 0.15 | 0.15 | 86 | 999.5 |
| 20260507095510 | 19 | 190 | 12.9 | 29.0 | 0.00 | 0.15 | 0.15 | 87 | 999.3 |
| 20260507095010 | 19 | 194 | 14.5 | 29.0 | 0.00 | 0.15 | 0.15 | 87 | 999.1 |
| 20260507094011 | 19 | 192 | 12.9 | 32.2 | 0.00 | 0.15 | 0.15 | 87 | 998.7 |
| 20260507093510 | 19 | 181 | 17.7 | 33.8 | 0.00 | 0.15 | 0.15 | 88 | 998.4 |
| 20260507093010 | 20 | 201 | 9.7 | 35.4 | 0.00 | 0.15 | 0.15 | 88 | 998.3 |
| 20260507092009 | 20 | 178 | 17.7 | 35.4 | 0.03 | 0.15 | 0.15 | 88 | 998.1 |
| 20260507091010 | 20 | 196 | 16.1 | 35.4 | 0.03 | 0.15 | 0.15 | 88 | 997.7 |
| 20260507090511 | 20 | 172 | 14.5 | 32.2 | 0.03 | 0.15 | 0.15 | 88 | 998.2 |
| 20260507090010 | 20 | 176 | 8.0 | 27.4 | 0.03 | 0.15 | 0.15 | 88 | 998.3 |
| 20260507085510 | 20 | 171 | 11.3 | 27.4 | 0.03 | 0.15 | 0.15 | 89 | 998.6 |
| 20260507085010 | 20 | 173 | 8.0 | 27.4 | 0.03 | 0.15 | 0.15 | 89 | 998.8 |
| 20260507084510 | 20 | 189 | 9.7 | 27.4 | 0.05 | 0.15 | 0.15 | 89 | 998.9 |
| 20260507084010 | 19 | 191 | 12.9 | 22.5 | 0.15 | 0.15 | 0.15 | 89 | 999.2 |
| 20260507083510 | 19 | 177 | 14.5 | 22.5 | 0.15 | 0.15 | 0.15 | 89 | 998.3 |
| 20260507083011 | 20 | 186 | 9.7 | 20.9 | 0.15 | 0.15 | 0.15 | 89 | 998.3 |
| 20260507082510 | 20 | 182 | 6.4 | 20.9 | 0.15 | 0.15 | 0.15 | 88 | 998.5 |
| 20260507082010 | 20 | 166 | 3.2 | 22.5 | 0.13 | 0.13 | 0.13 | 88 | 998.8 |
| 20260507081511 | 20 | 179 | 6.4 | 22.5 | 0.13 | 0.13 | 0.13 | 87 | 998.4 |
| 20260507081010 | 20 | 189 | 11.3 | 20.9 | 0.13 | 0.13 | 0.13 | 87 | 999.0 |
| 20260507080511 | 20 | 182 | 9.7 | 17.7 | 0.13 | 0.13 | 0.13 | 88 | 998.9 |
| 20260507075522 | 20 | 185 | 4.8 | 17.7 | 0.13 | 0.13 | 0.13 | 88 | 999.2 |
| 20260507075022 | 20 | 178 | 3.2 | 17.7 | 0.13 | 0.13 | 0.13 | 87 | 998.9 |
| 20260507074522 | 20 | 164 | 6.4 | 17.7 | 0.10 | 0.10 | 0.10 | 85 | 999.1 |
| 20260507073522 | 21 | 148 | 4.8 | 17.7 | 0.00 | 0.00 | 0.00 | 84 | 999.2 |
| 20260507073022 | 21 | 142 | 6.4 | 17.7 | 0.00 | 0.00 | 0.00 | 84 | 999.2 |
| 20260507072523 | 21 | 140 | 4.8 | 17.7 | 0.00 | 0.00 | 0.00 | 83 | 999.6 |
| 20260507072022 | 21 | 158 | 9.7 | 17.7 | 0.00 | 0.00 | 0.00 | 81 | 999.5 |
| 20260507071522 | 21 | 158 | 4.8 | 17.7 | 0.00 | 0.00 | 0.00 | 79 | 999.4 |
| 20260507070522 | 22 | 151 | 4.8 | 17.7 | 0.00 | 0.00 | 0.00 | 81 | 999.6 |
| 20260507070022 | 22 | 168 | 4.8 | 20.9 | 0.00 | 0.00 | 0.00 | 82 | 999.2 |
| 20260507065522 | 22 | 164 | 6.4 | 29.0 | 0.00 | 0.00 | 0.00 | 83 | 998.9 |
| 20260507065022 | 22 | 161 | 17.7 | 29.0 | 0.00 | 0.00 | 0.00 | 85 | 999.3 |
| 20260507064523 | 23 | 167 | 3.2 | 9.7 | 0.00 | 0.00 | 0.00 | 88 | 999.1 |
| 20260507063522 | 23 | 219 | 3.2 | 22.5 | 0.00 | 0.00 | 0.00 | 87 | 999.2 |
| 20260507063022 | 23 | 273 | 11.3 | 22.5 | 0.00 | 0.00 | 0.00 | 87 | 999.1 |
| 20260507062522 | 23 | 317 | 4.8 | 14.5 | 0.00 | 0.00 | 0.00 | 87 | 998.6 |
| 20260507061523 | 23 | 348 | 6.4 | 12.9 | 0.00 | 0.00 | 0.00 | 88 | 998.3 |
| 20260507061022 | 23 | 344 | 6.4 | 12.9 | 0.00 | 0.00 | 0.00 | 88 | 998.5 |
| 20260507060521 | 23 | 330 | 6.4 | 14.5 | 0.00 | 0.00 | 0.00 | 88 | 998.5 |
| 20260507060022 | 23 | 307 | 11.3 | 14.5 | 0.00 | 0.00 | 0.00 | 87 | 998.5 |
| 20260507055022 | 23 | 303 | 6.4 | 11.3 | 0.00 | 0.00 | 0.00 | 87 | 998.7 |
| 20260507054022 | 23 | 305 | 8.0 | 11.3 | 0.00 | 0.00 | 0.00 | 86 | 999.1 |
| 20260507053022 | 24 | 303 | 6.4 | 11.3 | 0.00 | 0.00 | 0.00 | 85 | 999.2 |
| 20260507052522 | 24 | 306 | 6.4 | 11.3 | 0.00 | 0.00 | 0.00 | 85 | 999.2 |
| 20260507052022 | 24 | 313 | 6.4 | 14.5 | 0.00 | 0.00 | 0.00 | 85 | 999.3 |
| 20260507051522 | 24 | 320 | 6.4 | 14.5 | 0.00 | 0.00 | 0.00 | 85 | 999.4 |
| 20260507051022 | 24 | 325 | 9.7 | 17.7 | 0.00 | 0.00 | 0.00 | 85 | 999.2 |
| 20260507050521 | 24 | 334 | 8.0 | 17.7 | 0.00 | 0.00 | 0.00 | 84 | 998.9 |
| 20260507050022 | 24 | 334 | 12.9 | 17.7 | 0.00 | 0.00 | 0.00 | 84 | 999.0 |
| 20260507045522 | 24 | 331 | 9.7 | 17.7 | 0.00 | 0.00 | 0.00 | 84 | 999.2 |
| 20260507045022 | 24 | 326 | 9.7 | 17.7 | 0.00 | 0.00 | 0.00 | 83 | 999.3 |
| 20260507044523 | 24 | 328 | 9.7 | 17.7 | 0.00 | 0.00 | 0.00 | 83 | 999.3 |
| 20260507044022 | 24 | 336 | 11.3 | 17.7 | 0.00 | 0.00 | 0.00 | 83 | 999.0 |
| 20260507043523 | 24 | 337 | 12.9 | 17.7 | 0.00 | 0.00 | 0.00 | 83 | 999.1 |
| 20260507043022 | 24 | 339 | 8.0 | 22.5 | 0.00 | 0.00 | 0.00 | 83 | 999.0 |
| 20260507041522 | 25 | 341 | 12.9 | 17.7 | 0.00 | 0.00 | 0.00 | 83 | 999.1 |
| 20260507041022 | 25 | 349 | 12.9 | 17.7 | 0.00 | 0.00 | 0.00 | 82 | 999.1 |
| 20260507040522 | 25 | 337 | 9.7 | 17.7 | 0.00 | 0.00 | 0.00 | 82 | 999.3 |
| 20260507040021 | 25 | 332 | 6.4 | 14.5 | 0.00 | 0.00 | 0.00 | 81 | 999.3 |
| 20260507035022 | 25 | 337 | 8.0 | 22.5 | 0.00 | 0.00 | 0.00 | 81 | 999.2 |
| 20260507034522 | 25 | 339 | 17.7 | 24.1 | 0.00 | 0.00 | 0.00 | 81 | 999.5 |
| 20260507034022 | 25 | 342 | 14.5 | 24.1 | 0.00 | 0.00 | 0.00 | 81 | 999.3 |
| 20260507033522 | 25 | 341 | 14.5 | 25.7 | 0.00 | 0.00 | 0.00 | 81 | 999.5 |
| 20260507033022 | 25 | 341 | 17.7 | 25.7 | 0.00 | 0.00 | 0.00 | 81 | 999.5 |
| 20260507032522 | 25 | 341 | 16.1 | 24.1 | 0.00 | 0.00 | 0.00 | 81 | 999.8 |
| 20260507031522 | 25 | 339 | 12.9 | 17.7 | 0.00 | 0.00 | 0.00 | 81 | 999.5 |
| 20260507031022 | 25 | 338 | 12.9 | 17.7 | 0.00 | 0.00 | 0.00 | 81 | 999.8 |
| 20260507030522 | 25 | 333 | 11.3 | 17.7 | 0.00 | 0.00 | 0.00 | 80 | 999.6 |
| 20260507030022 | 25 | 336 | 8.0 | 12.9 | 0.00 | 0.00 | 0.00 | 80 | 1000.1 |
| 20260507025523 | 25 | 344 | 6.4 | 12.9 | 0.00 | 0.00 | 0.00 | 80 | 999.9 |
| 20260507025023 | 25 | 333 | 6.4 | 11.3 | 0.00 | 0.00 | 0.00 | 80 | 1000.2 |
| 20260507024022 | 25 | 336 | 6.4 | 17.7 | 0.00 | 0.00 | 0.00 | 80 | 1000.2 |
| 20260507023522 | 25 | 342 | 6.4 | 17.7 | 0.00 | 0.00 | 0.00 | 79 | 1000.1 |
| 20260507023022 | 25 | 345 | 12.9 | 17.7 | 0.00 | 0.00 | 0.00 | 79 | 1000.2 |
| 20260507022521 | 25 | 344 | 12.9 | 14.5 | 0.00 | 0.00 | 0.00 | 79 | 999.9 |
| 20260507022022 | 25 | 342 | 8.0 | 12.9 | 0.00 | 0.00 | 0.00 | 78 | 1000.3 |
| 20260507021522 | 25 | 339 | 6.4 | 14.5 | 0.00 | 0.00 | 0.00 | 78 | 1000.1 |
| 20260507021022 | 26 | 338 | 9.7 | 14.5 | 0.00 | 0.00 | 0.00 | 78 | 1000.3 |
| 20260507020522 | 26 | 342 | 8.0 | 12.9 | 0.00 | 0.00 | 0.00 | 78 | 1000.1 |
| 20260507015522 | 26 | 349 | 4.8 | 17.7 | 0.00 | 0.00 | 0.00 | 78 | 999.9 |
| 20260507015022 | 26 | 341 | 6.4 | 17.7 | 0.00 | 0.00 | 0.00 | 77 | 1000.1 |
| 20260507014521 | 26 | 338 | 8.0 | 14.5 | 0.00 | 0.00 | 0.00 | 78 | 999.9 |
| 20260507014022 | 25 | 342 | 8.0 | 14.5 | 0.00 | 0.00 | 0.00 | 78 | 1000.0 |
| 20260507013522 | 25 | 356 | 9.7 | 22.5 | 0.00 | 0.00 | 0.00 | 78 | 1000.0 |
| 20260507013023 | 26 | 7 | 8.0 | 22.5 | 0.00 | 0.00 | 0.00 | 77 | 999.6 |
| 20260507012522 | 26 | 2 | 14.5 | 22.5 | 0.00 | 0.00 | 0.00 | 77 | 999.6 |
| 20260507012021 | 26 | 355 | 11.3 | 20.9 | 0.00 | 0.00 | 0.00 | 77 | 999.5 |
| 20260507011521 | 26 | 352 | 11.3 | 24.1 | 0.00 | 0.00 | 0.00 | 77 | 999.8 |
| 20260507011022 | 26 | 357 | 12.9 | 24.1 | 0.00 | 0.00 | 0.00 | 77 | 999.6 |
| 20260507010522 | 26 | 355 | 17.7 | 24.1 | 0.00 | 0.00 | 0.00 | 76 | 999.6 |
| 20260507010021 | 26 | 345 | 12.9 | 24.1 | 0.00 | 0.00 | 0.00 | 76 | 999.4 |
| 20260507005021 | 26 | 350 | 12.9 | 25.7 | 0.00 | 0.00 | 0.00 | 76 | 999.3 |
| 20260507004521 | 26 | 351 | 11.3 | 29.0 | 0.00 | 0.00 | 0.00 | 76 | 999.4 |
| 20260507004022 | 26 | 351 | 19.3 | 29.0 | 0.00 | 0.00 | 0.00 | 76 | 999.5 |
| 20260507002521 | 26 | 342 | 12.9 | 22.5 | 0.00 | 0.00 | 0.00 | 76 | 999.6 |
| 20260507001522 | 26 | 342 | 12.9 | 24.1 | 0.00 | 0.00 | 0.00 | 75 | 999.5 |
| 20260507000522 | 26 | 351 | 9.7 | 22.5 | 0.00 | 0.00 | 0.00 | 75 | 999.7 |
| 20260507000022 | 26 | 356 | 9.7 | 22.5 | 0.00 | 0.00 | 0.00 | 74 | 999.7 |
| 20260506235521 | 27 | 344 | 12.9 | 24.1 | 0.00 | 0.00 | 0.00 | 73 | 999.9 |
| 20260506234521 | 27 | 341 | 8.0 | 22.5 | 0.00 | 0.00 | 0.00 | 72 | 999.8 |
| 20260506234022 | 27 | 343 | 12.9 | 22.5 | 0.00 | 0.00 | 0.00 | 71 | 999.7 |
| 20260506233521 | 27 | 338 | 11.3 | 25.7 | 0.00 | 0.00 | 0.00 | 71 | 999.9 |
| 20260506233021 | 27 | 340 | 11.3 | 29.0 | 0.00 | 0.00 | 0.00 | 70 | 999.7 |
| 20260506232522 | 27 | 345 | 17.7 | 33.8 | 0.00 | 0.00 | 0.00 | 69 | 999.7 |
| 20260506232021 | 27 | 346 | 11.3 | 33.8 | 0.00 | 0.00 | 0.00 | 69 | 999.5 |
| 20260506231522 | 28 | 341 | 19.3 | 33.8 | 0.00 | 0.00 | 0.00 | 69 | 999.3 |
| 20260506230522 | 28 | 332 | 12.9 | 35.4 | 0.00 | 0.00 | 0.00 | 69 | 999.5 |
| 20260506225522 | 28 | 357 | 12.9 | 37.0 | 0.00 | 0.00 | 0.00 | 69 | 999.5 |
| 20260506225021 | 28 | 350 | 20.9 | 37.0 | 0.00 | 0.00 | 0.00 | 69 | 999.5 |
| 20260506223522 | 27 | 350 | 17.7 | 86.9 | 0.00 | 0.00 | 0.00 | 70 | 999.5 |
| 20260506223022 | 28 | 348 | 17.7 | 32.2 | 0.00 | 0.00 | 0.00 | 70 | 999.8 |
| 20260506222521 | 28 | 358 | 12.9 | 27.4 | 0.00 | 0.00 | 0.00 | 70 | 1000.0 |
| 20260506222022 | 28 | 5 | 14.5 | 27.4 | 0.00 | 0.00 | 0.00 | 70 | 999.7 |
| 20260506221521 | 28 | 358 | 12.9 | 25.7 | 0.00 | 0.00 | 0.00 | 69 | 1000.1 |
| 20260506221023 | 28 | 356 | 12.9 | 17.7 | 0.00 | 0.00 | 0.00 | 69 | 1000.1 |
| 20260506220021 | 28 | 342 | 9.7 | 20.9 | 0.00 | 0.00 | 0.00 | 69 | 999.8 |
| 20260506215522 | 28 | 349 | 9.7 | 22.5 | 0.00 | 0.00 | 0.00 | 69 | 1000.0 |
| 20260506214522 | 28 | 343 | 11.3 | 17.7 | 0.00 | 0.00 | 0.00 | 69 | 1000.0 |
| 20260506213521 | 28 | 341 | 9.7 | 20.9 | 0.00 | 0.00 | 0.00 | 68 | 1000.2 |
| 20260506213022 | 29 | 340 | 8.0 | 22.5 | 0.00 | 0.00 | 0.00 | 68 | 1000.4 |
| 20260506212521 | 29 | 346 | 12.9 | 25.7 | 0.00 | 0.00 | 0.00 | 67 | 1000.3 |
| 20260506212022 | 29 | 344 | 12.9 | 35.4 | 0.00 | 0.00 | 0.00 | 66 | 1000.1 |
| 20260506211522 | 29 | 334 | 16.1 | 35.4 | 0.00 | 0.00 | 0.00 | 66 | 1000.1 |
| 20260506211021 | 29 | 346 | 14.5 | 27.4 | 0.00 | 0.00 | 0.00 | 66 | 1000.0 |
| 20260506210521 | 29 | 353 | 24.1 | 32.2 | 0.00 | 0.00 | 0.00 | 65 | 1000.0 |
| 20260506210021 | 30 | 347 | 19.3 | 32.2 | 0.00 | 0.00 | 0.00 | 65 | 999.7 |
| 20260506205521 | 30 | 340 | 14.5 | 27.4 | 0.00 | 0.00 | 0.00 | 65 | 999.9 |
| 20260506205022 | 30 | 334 | 14.5 | 27.4 | 0.00 | 0.00 | 0.00 | 64 | 999.8 |
| 20260506204022 | 30 | 339 | 19.3 | 35.4 | 0.00 | 0.00 | 0.00 | 64 | 1000.0 |
| 20260506203521 | 30 | 334 | 17.7 | 35.4 | 0.00 | 0.00 | 0.00 | 63 | 1000.0 |
| 20260506203021 | 30 | 342 | 19.3 | 33.8 | 0.00 | 0.00 | 0.00 | 63 | 1000.2 |
| 20260506202522 | 30 | 336 | 20.9 | 33.8 | 0.00 | 0.00 | 0.00 | 63 | 1000.2 |
| 20260506202021 | 30 | 329 | 20.9 | 33.8 | 0.00 | 0.00 | 0.00 | 63 | 1000.1 |
| 20260506201521 | 30 | 341 | 22.5 | 29.0 | 0.00 | 0.00 | 0.00 | 63 | 1000.0 |
| 20260506201022 | 30 | 342 | 19.3 | 32.2 | 0.00 | 0.00 | 0.00 | 63 | 1000.4 |
| 20260506200521 | 30 | 333 | 14.5 | 32.2 | 0.00 | 0.00 | 0.00 | 63 | 1000.4 |
| 20260506200021 | 30 | 340 | 24.1 | 35.4 | 0.00 | 0.00 | 0.00 | 63 | 1000.4 |
| 20260506195521 | 30 | 355 | 14.5 | 37.0 | 0.00 | 0.00 | 0.00 | 63 | 1000.2 |
| 20260506195022 | 30 | 340 | 27.4 | 37.0 | 0.00 | 0.00 | 0.00 | 63 | 1000.5 |
| 20260506194521 | 30 | 320 | 16.1 | 29.0 | 0.00 | 0.00 | 0.00 | 63 | 1000.3 |
| 20260506194021 | 30 | 337 | 20.9 | 33.8 | 0.00 | 0.00 | 0.00 | 63 | 1000.5 |
| 20260506193521 | 30 | 343 | 20.9 | 38.6 | 0.00 | 0.00 | 0.00 | 62 | 1000.4 |
| 20260506193021 | 30 | 342 | 20.9 | 43.5 | 0.00 | 0.00 | 0.00 | 62 | 1000.3 |
| 20260506192021 | 31 | 342 | 16.1 | 32.2 | 0.00 | 0.00 | 0.00 | 62 | 1000.4 |
| 20260506191521 | 30 | 343 | 17.7 | 32.2 | 0.00 | 0.00 | 0.00 | 63 | 1000.6 |
| 20260506191021 | 31 | 323 | 14.5 | 29.0 | 0.00 | 0.00 | 0.00 | 62 | 1000.2 |
| 20260506185521 | 30 | 324 | 24.1 | 43.5 | 0.00 | 0.00 | 0.00 | 63 | 1000.7 |
| 20260506184521 | 30 | 318 | 20.9 | 37.0 | 0.00 | 0.00 | 0.00 | 62 | 1000.9 |
| 20260506184021 | 30 | 323 | 14.5 | 32.2 | 0.00 | 0.00 | 0.00 | 62 | 1000.9 |
| 20260506183521 | 30 | 332 | 20.9 | 35.4 | 0.00 | 0.00 | 0.00 | 63 | 1001.1 |
| 20260506183021 | 30 | 345 | 22.5 | 43.5 | 0.00 | 0.00 | 0.00 | 62 | 1001.0 |
| 20260506182521 | 30 | 342 | 24.1 | 43.5 | 0.00 | 0.00 | 0.00 | 63 | 1001.0 |
| 20260506182020 | 30 | 341 | 25.7 | 35.4 | 0.00 | 0.00 | 0.00 | 62 | 1000.9 |
| 20260506181521 | 30 | 346 | 24.1 | 43.5 | 0.00 | 0.00 | 0.00 | 62 | 1001.1 |
| 20260506181021 | 30 | 343 | 17.7 | 48.3 | 0.00 | 0.00 | 0.00 | 63 | 1001.2 |